Terminal Aerodrome Forecast
Issued by NWS

Home | Current Version | Previous Version | Text Only | Print | Product List | Glossary On
Versions: 1 2 3 4 5 6 7 8 9 10 11 12 13 14 15 16 17 18
465
FTUS46 KSEW 290520
TAFPAE
TAF
KPAE 290520Z 2906/3006 18013KT P6SM VCSH SCT012 OVC025
      TEMPO 2906/2910 -SHRA OVC012
     FM291000 17004KT 5SM BR VCSH OVC015
     FM291900 31006KT P6SM BKN022 BKN035
     FM292100 35006KT P6SM BKN035
     FM300300 03005KT P6SM SCT040=

USA.gov is the U.S. government's official web portal to all federal, state and local government web resources and services.